sensor_id;sensor_type;location;lat;lon;timestamp;temperature;humidity
33023;DHT22;19390;51.460;5.710;2023-12-14T00:00:43;8.00;99.90
33023;DHT22;19390;51.460;5.710;2023-12-14T00:03:09;8.00;99.90
33023;DHT22;19390;51.460;5.710;2023-12-14T00:05:34;8.00;99.90
33023;DHT22;19390;51.460;5.710;2023-12-14T00:08:00;8.00;99.90
33023;DHT22;19390;51.460;5.710;2023-12-14T00:10:26;8.00;99.90
33023;DHT22;19390;51.460;5.710;2023-12-14T00:12:52;8.00;99.90
33023;DHT22;19390;51.460;5.710;2023-12-14T00:15:19;7.90;99.90
33023;DHT22;19390;51.460;5.710;2023-12-14T00:17:45;7.80;99.90
33023;DHT22;19390;51.460;5.710;2023-12-14T00:20:11;7.80;99.90
33023;DHT22;19390;51.460;5.710;2023-12-14T00:22:36;7.80;99.90
33023;DHT22;19390;51.460;5.710;2023-12-14T00:25:04;7.80;99.90
33023;DHT22;19390;51.460;5.710;2023-12-14T00:27:29;7.70;99.90
33023;DHT22;19390;51.460;5.710;2023-12-14T00:29:55;7.70;99.90
33023;DHT22;19390;51.460;5.710;2023-12-14T00:32:20;7.70;99.90
33023;DHT22;19390;51.460;5.710;2023-12-14T00:34:46;7.70;99.90
33023;DHT22;19390;51.460;5.710;2023-12-14T00:37:12;7.60;99.90
33023;DHT22;19390;51.460;5.710;2023-12-14T00:39:37;7.60;99.90
33023;DHT22;19390;51.460;5.710;2023-12-14T00:42:03;7.60;99.90
33023;DHT22;19390;51.460;5.710;2023-12-14T00:44:29;7.50;99.90
33023;DHT22;19390;51.460;5.710;2023-12-14T00:46:54;7.40;99.90
33023;DHT22;19390;51.460;5.710;2023-12-14T00:49:20;7.40;99.90
33023;DHT22;19390;51.460;5.710;2023-12-14T00:51:45;7.40;99.90
33023;DHT22;19390;51.460;5.710;2023-12-14T00:54:11;7.40;99.90
33023;DHT22;19390;51.460;5.710;2023-12-14T00:56:36;7.30;99.90
33023;DHT22;19390;51.460;5.710;2023-12-14T00:59:02;7.30;99.90
33023;DHT22;19390;51.460;5.710;2023-12-14T01:01:28;7.20;99.90
33023;DHT22;19390;51.460;5.710;2023-12-14T01:03:53;7.20;99.90
33023;DHT22;19390;51.460;5.710;2023-12-14T01:06:19;7.20;99.90
33023;DHT22;19390;51.460;5.710;2023-12-14T01:08:44;7.10;99.90
33023;DHT22;19390;51.460;5.710;2023-12-14T01:11:10;7.10;99.90
33023;DHT22;19390;51.460;5.710;2023-12-14T01:13:36;7.10;99.90
33023;DHT22;19390;51.460;5.710;2023-12-14T01:16:01;7.10;99.90
33023;DHT22;19390;51.460;5.710;2023-12-14T01:18:27;7.10;99.90
33023;DHT22;19390;51.460;5.710;2023-12-14T01:20:53;7.00;99.90
33023;DHT22;19390;51.460;5.710;2023-12-14T01:23:18;7.00;99.90
33023;DHT22;19390;51.460;5.710;2023-12-14T01:25:44;7.00;99.90
33023;DHT22;19390;51.460;5.710;2023-12-14T01:28:09;6.90;99.90
33023;DHT22;19390;51.460;5.710;2023-12-14T01:30:35;6.90;99.90
33023;DHT22;19390;51.460;5.710;2023-12-14T01:33:00;6.90;99.90
33023;DHT22;19390;51.460;5.710;2023-12-14T01:35:26;6.90;99.90
33023;DHT22;19390;51.460;5.710;2023-12-14T01:37:53;6.90;99.90
33023;DHT22;19390;51.460;5.710;2023-12-14T01:40:19;6.90;99.90
33023;DHT22;19390;51.460;5.710;2023-12-14T01:42:45;6.90;99.90
33023;DHT22;19390;51.460;5.710;2023-12-14T01:45:11;6.90;99.90
33023;DHT22;19390;51.460;5.710;2023-12-14T01:47:38;6.90;99.90
33023;DHT22;19390;51.460;5.710;2023-12-14T01:50:04;6.80;99.90
33023;DHT22;19390;51.460;5.710;2023-12-14T01:52:30;6.80;99.90
33023;DHT22;19390;51.460;5.710;2023-12-14T01:54:55;6.80;99.90
33023;DHT22;19390;51.460;5.710;2023-12-14T01:57:24;6.80;99.90
33023;DHT22;19390;51.460;5.710;2023-12-14T01:59:50;6.80;99.90
33023;DHT22;19390;51.460;5.710;2023-12-14T02:02:15;6.80;99.90
33023;DHT22;19390;51.460;5.710;2023-12-14T02:04:41;6.80;99.90
33023;DHT22;19390;51.460;5.710;2023-12-14T02:07:06;6.70;99.90
33023;DHT22;19390;51.460;5.710;2023-12-14T02:09:32;6.70;99.90
33023;DHT22;19390;51.460;5.710;2023-12-14T02:11:58;6.70;99.90
33023;DHT22;19390;51.460;5.710;2023-12-14T02:14:23;6.70;99.90
33023;DHT22;19390;51.460;5.710;2023-12-14T02:16:49;6.70;99.90
33023;DHT22;19390;51.460;5.710;2023-12-14T02:19:14;6.60;99.90
33023;DHT22;19390;51.460;5.710;2023-12-14T02:21:40;6.60;99.90
33023;DHT22;19390;51.460;5.710;2023-12-14T02:24:06;6.60;99.90
33023;DHT22;19390;51.460;5.710;2023-12-14T02:26:31;6.60;99.90
33023;DHT22;19390;51.460;5.710;2023-12-14T02:28:57;6.50;99.90
33023;DHT22;19390;51.460;5.710;2023-12-14T02:31:23;6.50;99.90
33023;DHT22;19390;51.460;5.710;2023-12-14T02:33:48;6.50;99.90
33023;DHT22;19390;51.460;5.710;2023-12-14T02:36:14;6.50;99.90
33023;DHT22;19390;51.460;5.710;2023-12-14T02:38:40;6.60;99.90
33023;DHT22;19390;51.460;5.710;2023-12-14T02:41:05;6.60;99.90
33023;DHT22;19390;51.460;5.710;2023-12-14T02:43:31;6.50;99.90
33023;DHT22;19390;51.460;5.710;2023-12-14T02:45:57;6.50;99.90
33023;DHT22;19390;51.460;5.710;2023-12-14T02:48:27;6.50;99.90
33023;DHT22;19390;51.460;5.710;2023-12-14T02:50:54;6.50;99.90
33023;DHT22;19390;51.460;5.710;2023-12-14T02:53:19;6.50;99.90
33023;DHT22;19390;51.460;5.710;2023-12-14T02:55:45;6.50;99.90
33023;DHT22;19390;51.460;5.710;2023-12-14T02:58:11;6.50;99.90
33023;DHT22;19390;51.460;5.710;2023-12-14T03:00:36;6.50;99.90
33023;DHT22;19390;51.460;5.710;2023-12-14T03:03:02;6.50;99.90
33023;DHT22;19390;51.460;5.710;2023-12-14T03:05:27;6.50;99.90
33023;DHT22;19390;51.460;5.710;2023-12-14T03:07:53;6.40;99.90
33023;DHT22;19390;51.460;5.710;2023-12-14T03:10:18;6.40;99.90
33023;DHT22;19390;51.460;5.710;2023-12-14T03:12:44;6.40;99.90
33023;DHT22;19390;51.460;5.710;2023-12-14T03:15:09;6.40;99.90
33023;DHT22;19390;51.460;5.710;2023-12-14T03:17:35;6.40;99.90
33023;DHT22;19390;51.460;5.710;2023-12-14T03:20:01;6.40;99.90
33023;DHT22;19390;51.460;5.710;2023-12-14T03:22:28;6.30;99.90
33023;DHT22;19390;51.460;5.710;2023-12-14T03:24:54;6.40;99.90
33023;DHT22;19390;51.460;5.710;2023-12-14T03:27:19;6.30;99.90
33023;DHT22;19390;51.460;5.710;2023-12-14T03:29:47;6.30;99.90
33023;DHT22;19390;51.460;5.710;2023-12-14T03:32:13;6.30;99.90
33023;DHT22;19390;51.460;5.710;2023-12-14T03:34:39;6.30;99.90
33023;DHT22;19390;51.460;5.710;2023-12-14T03:37:04;6.20;99.90
33023;DHT22;19390;51.460;5.710;2023-12-14T03:39:30;6.20;99.90
33023;DHT22;19390;51.460;5.710;2023-12-14T03:41:55;6.20;99.90
33023;DHT22;19390;51.460;5.710;2023-12-14T03:44:21;6.20;99.90
33023;DHT22;19390;51.460;5.710;2023-12-14T03:46:46;6.20;99.90
33023;DHT22;19390;51.460;5.710;2023-12-14T03:49:12;6.20;99.90
33023;DHT22;19390;51.460;5.710;2023-12-14T03:51:38;6.20;99.90
33023;DHT22;19390;51.460;5.710;2023-12-14T03:54:03;6.20;99.90
33023;DHT22;19390;51.460;5.710;2023-12-14T03:56:29;6.20;99.90
33023;DHT22;19390;51.460;5.710;2023-12-14T03:58:55;6.20;99.90
33023;DHT22;19390;51.460;5.710;2023-12-14T04:01:22;6.10;99.90
33023;DHT22;19390;51.460;5.710;2023-12-14T04:03:48;6.10;99.90
33023;DHT22;19390;51.460;5.710;2023-12-14T04:06:14;6.10;99.90
33023;DHT22;19390;51.460;5.710;2023-12-14T04:08:40;6.20;99.90
33023;DHT22;19390;51.460;5.710;2023-12-14T04:11:06;6.20;99.90
33023;DHT22;19390;51.460;5.710;2023-12-14T04:13:32;6.10;99.90
33023;DHT22;19390;51.460;5.710;2023-12-14T04:15:58;6.10;99.90
33023;DHT22;19390;51.460;5.710;2023-12-14T04:18:24;6.10;99.90
33023;DHT22;19390;51.460;5.710;2023-12-14T04:20:50;6.20;99.90
33023;DHT22;19390;51.460;5.710;2023-12-14T04:23:15;6.10;99.90
33023;DHT22;19390;51.460;5.710;2023-12-14T04:25:41;6.10;99.90
33023;DHT22;19390;51.460;5.710;2023-12-14T04:28:06;6.10;99.90
33023;DHT22;19390;51.460;5.710;2023-12-14T04:30:32;6.10;99.90
33023;DHT22;19390;51.460;5.710;2023-12-14T04:32:57;6.10;99.90
33023;DHT22;19390;51.460;5.710;2023-12-14T04:35:23;6.10;99.90
33023;DHT22;19390;51.460;5.710;2023-12-14T04:37:49;6.00;99.90
33023;DHT22;19390;51.460;5.710;2023-12-14T04:40:14;6.00;99.90
33023;DHT22;19390;51.460;5.710;2023-12-14T04:42:40;6.10;99.90
33023;DHT22;19390;51.460;5.710;2023-12-14T04:45:06;6.00;99.90
33023;DHT22;19390;51.460;5.710;2023-12-14T04:47:32;6.10;99.90
33023;DHT22;19390;51.460;5.710;2023-12-14T04:49:57;6.00;99.90
33023;DHT22;19390;51.460;5.710;2023-12-14T04:52:23;6.00;99.90
33023;DHT22;19390;51.460;5.710;2023-12-14T04:54:48;6.10;99.90
33023;DHT22;19390;51.460;5.710;2023-12-14T04:57:14;6.10;99.90
33023;DHT22;19390;51.460;5.710;2023-12-14T04:59:41;6.00;99.90
33023;DHT22;19390;51.460;5.710;2023-12-14T05:02:07;6.00;99.90
33023;DHT22;19390;51.460;5.710;2023-12-14T05:04:33;6.00;99.90
33023;DHT22;19390;51.460;5.710;2023-12-14T05:06:58;6.00;99.90
33023;DHT22;19390;51.460;5.710;2023-12-14T05:09:24;6.00;99.90
33023;DHT22;19390;51.460;5.710;2023-12-14T05:11:50;6.00;99.90
33023;DHT22;19390;51.460;5.710;2023-12-14T05:14:15;6.00;99.90
33023;DHT22;19390;51.460;5.710;2023-12-14T05:16:41;6.00;99.90
33023;DHT22;19390;51.460;5.710;2023-12-14T05:19:06;6.00;99.90
33023;DHT22;19390;51.460;5.710;2023-12-14T05:21:32;6.00;99.90
33023;DHT22;19390;51.460;5.710;2023-12-14T05:23:57;5.90;99.90
33023;DHT22;19390;51.460;5.710;2023-12-14T05:26:23;5.90;99.90
33023;DHT22;19390;51.460;5.710;2023-12-14T05:28:49;5.90;99.90
33023;DHT22;19390;51.460;5.710;2023-12-14T05:31:14;5.90;99.90
33023;DHT22;19390;51.460;5.710;2023-12-14T05:33:40;6.00;99.90
33023;DHT22;19390;51.460;5.710;2023-12-14T05:36:06;6.00;99.90
33023;DHT22;19390;51.460;5.710;2023-12-14T05:38:37;6.00;99.90
33023;DHT22;19390;51.460;5.710;2023-12-14T05:41:03;6.00;99.90
33023;DHT22;19390;51.460;5.710;2023-12-14T05:43:29;6.00;99.90
33023;DHT22;19390;51.460;5.710;2023-12-14T05:45:55;5.90;99.90
33023;DHT22;19390;51.460;5.710;2023-12-14T05:48:20;5.90;99.90
33023;DHT22;19390;51.460;5.710;2023-12-14T05:50:46;6.00;99.90
33023;DHT22;19390;51.460;5.710;2023-12-14T05:53:11;6.00;99.90
33023;DHT22;19390;51.460;5.710;2023-12-14T05:55:37;5.90;99.90
33023;DHT22;19390;51.460;5.710;2023-12-14T05:58:05;5.90;99.90
33023;DHT22;19390;51.460;5.710;2023-12-14T06:00:30;5.90;99.90
33023;DHT22;19390;51.460;5.710;2023-12-14T06:02:57;5.90;99.90
33023;DHT22;19390;51.460;5.710;2023-12-14T06:05:22;5.90;99.90
33023;DHT22;19390;51.460;5.710;2023-12-14T06:07:48;5.90;99.90
33023;DHT22;19390;51.460;5.710;2023-12-14T06:10:13;5.80;99.90
33023;DHT22;19390;51.460;5.710;2023-12-14T06:12:39;5.80;99.90
33023;DHT22;19390;51.460;5.710;2023-12-14T06:15:05;5.80;99.90
33023;DHT22;19390;51.460;5.710;2023-12-14T06:17:31;5.80;99.90
33023;DHT22;19390;51.460;5.710;2023-12-14T06:19:59;5.70;99.90
33023;DHT22;19390;51.460;5.710;2023-12-14T06:22:25;5.70;99.90
33023;DHT22;19390;51.460;5.710;2023-12-14T06:24:51;5.70;99.90
33023;DHT22;19390;51.460;5.710;2023-12-14T06:27:17;5.70;99.90
33023;DHT22;19390;51.460;5.710;2023-12-14T06:29:43;5.60;99.90
33023;DHT22;19390;51.460;5.710;2023-12-14T06:32:08;5.60;99.90
33023;DHT22;19390;51.460;5.710;2023-12-14T06:34:34;5.60;99.90
33023;DHT22;19390;51.460;5.710;2023-12-14T06:36:59;5.60;99.90
33023;DHT22;19390;51.460;5.710;2023-12-14T06:39:27;5.60;99.90
33023;DHT22;19390;51.460;5.710;2023-12-14T06:41:53;5.60;99.90
33023;DHT22;19390;51.460;5.710;2023-12-14T06:44:18;5.60;99.90
33023;DHT22;19390;51.460;5.710;2023-12-14T06:46:44;5.60;99.90
33023;DHT22;19390;51.460;5.710;2023-12-14T06:49:10;5.60;99.90
33023;DHT22;19390;51.460;5.710;2023-12-14T06:51:35;5.60;99.90
33023;DHT22;19390;51.460;5.710;2023-12-14T06:54:01;5.60;99.90
33023;DHT22;19390;51.460;5.710;2023-12-14T06:56:27;5.60;99.90
33023;DHT22;19390;51.460;5.710;2023-12-14T06:58:53;5.60;99.90
33023;DHT22;19390;51.460;5.710;2023-12-14T07:01:18;5.60;99.90
33023;DHT22;19390;51.460;5.710;2023-12-14T07:03:44;5.70;99.90
33023;DHT22;19390;51.460;5.710;2023-12-14T07:06:14;5.70;99.90
33023;DHT22;19390;51.460;5.710;2023-12-14T07:08:40;5.70;99.90
33023;DHT22;19390;51.460;5.710;2023-12-14T07:11:10;5.80;99.90
33023;DHT22;19390;51.460;5.710;2023-12-14T07:13:38;5.70;99.90
33023;DHT22;19390;51.460;5.710;2023-12-14T07:16:08;5.70;99.90
33023;DHT22;19390;51.460;5.710;2023-12-14T07:18:41;5.70;99.90
33023;DHT22;19390;51.460;5.710;2023-12-14T07:21:07;5.70;99.90
33023;DHT22;19390;51.460;5.710;2023-12-14T07:23:33;5.80;99.90
33023;DHT22;19390;51.460;5.710;2023-12-14T07:25:59;5.70;99.90
33023;DHT22;19390;51.460;5.710;2023-12-14T07:28:26;5.80;99.90
33023;DHT22;19390;51.460;5.710;2023-12-14T07:30:51;5.70;99.90
33023;DHT22;19390;51.460;5.710;2023-12-14T07:33:17;5.70;99.90
33023;DHT22;19390;51.460;5.710;2023-12-14T07:35:42;5.70;99.90
33023;DHT22;19390;51.460;5.710;2023-12-14T07:38:10;5.80;99.90
33023;DHT22;19390;51.460;5.710;2023-12-14T07:40:35;5.80;99.90
33023;DHT22;19390;51.460;5.710;2023-12-14T07:43:01;5.70;99.90
33023;DHT22;19390;51.460;5.710;2023-12-14T07:45:27;5.70;99.90
33023;DHT22;19390;51.460;5.710;2023-12-14T07:47:52;5.70;99.90
33023;DHT22;19390;51.460;5.710;2023-12-14T07:50:19;5.70;99.90
33023;DHT22;19390;51.460;5.710;2023-12-14T07:52:45;5.70;99.90
33023;DHT22;19390;51.460;5.710;2023-12-14T07:55:10;5.70;99.90
33023;DHT22;19390;51.460;5.710;2023-12-14T07:57:38;5.70;99.90
33023;DHT22;19390;51.460;5.710;2023-12-14T08:00:05;5.70;99.90
33023;DHT22;19390;51.460;5.710;2023-12-14T08:02:31;5.70;99.90
33023;DHT22;19390;51.460;5.710;2023-12-14T08:04:56;5.80;99.90
33023;DHT22;19390;51.460;5.710;2023-12-14T08:07:22;5.80;99.90
33023;DHT22;19390;51.460;5.710;2023-12-14T08:09:47;5.80;99.90
33023;DHT22;19390;51.460;5.710;2023-12-14T08:12:13;5.70;99.90
33023;DHT22;19390;51.460;5.710;2023-12-14T08:14:39;5.70;99.90
33023;DHT22;19390;51.460;5.710;2023-12-14T08:17:09;5.70;99.90
33023;DHT22;19390;51.460;5.710;2023-12-14T08:19:34;5.70;99.90
33023;DHT22;19390;51.460;5.710;2023-12-14T08:22:00;5.60;99.90
33023;DHT22;19390;51.460;5.710;2023-12-14T08:24:25;5.70;99.90
33023;DHT22;19390;51.460;5.710;2023-12-14T08:26:51;5.70;99.90
33023;DHT22;19390;51.460;5.710;2023-12-14T08:29:17;5.70;99.90
33023;DHT22;19390;51.460;5.710;2023-12-14T08:31:42;5.60;99.90
33023;DHT22;19390;51.460;5.710;2023-12-14T08:34:08;5.60;99.90
33023;DHT22;19390;51.460;5.710;2023-12-14T08:36:34;5.70;99.90
33023;DHT22;19390;51.460;5.710;2023-12-14T08:38:59;5.70;99.90
33023;DHT22;19390;51.460;5.710;2023-12-14T08:41:25;5.60;99.90
33023;DHT22;19390;51.460;5.710;2023-12-14T08:43:51;5.70;99.90
33023;DHT22;19390;51.460;5.710;2023-12-14T08:46:16;5.70;99.90
33023;DHT22;19390;51.460;5.710;2023-12-14T08:48:42;5.70;99.90
33023;DHT22;19390;51.460;5.710;2023-12-14T08:51:07;5.70;99.90
33023;DHT22;19390;51.460;5.710;2023-12-14T08:53:33;5.70;99.90
33023;DHT22;19390;51.460;5.710;2023-12-14T08:55:58;5.70;99.90
33023;DHT22;19390;51.460;5.710;2023-12-14T08:58:24;5.70;99.90
33023;DHT22;19390;51.460;5.710;2023-12-14T09:00:50;5.70;99.90
33023;DHT22;19390;51.460;5.710;2023-12-14T09:03:19;5.70;99.90
33023;DHT22;19390;51.460;5.710;2023-12-14T09:05:45;5.70;99.90
33023;DHT22;19390;51.460;5.710;2023-12-14T09:08:11;5.80;99.90
33023;DHT22;19390;51.460;5.710;2023-12-14T09:10:39;5.80;99.90
33023;DHT22;19390;51.460;5.710;2023-12-14T09:13:05;5.80;99.90
33023;DHT22;19390;51.460;5.710;2023-12-14T09:15:32;5.80;99.90
33023;DHT22;19390;51.460;5.710;2023-12-14T09:17:57;5.80;99.90
33023;DHT22;19390;51.460;5.710;2023-12-14T09:20:23;5.70;99.90
33023;DHT22;19390;51.460;5.710;2023-12-14T09:22:49;5.70;99.90
33023;DHT22;19390;51.460;5.710;2023-12-14T09:25:15;5.70;99.90
33023;DHT22;19390;51.460;5.710;2023-12-14T09:27:41;5.70;99.90
33023;DHT22;19390;51.460;5.710;2023-12-14T09:30:07;5.70;99.90
33023;DHT22;19390;51.460;5.710;2023-12-14T09:32:33;5.80;99.90
33023;DHT22;19390;51.460;5.710;2023-12-14T09:34:59;5.80;99.90
33023;DHT22;19390;51.460;5.710;2023-12-14T09:37:25;5.80;99.90
33023;DHT22;19390;51.460;5.710;2023-12-14T09:39:51;5.80;99.90
33023;DHT22;19390;51.460;5.710;2023-12-14T09:42:20;5.70;99.90
33023;DHT22;19390;51.460;5.710;2023-12-14T09:44:47;5.80;99.90
33023;DHT22;19390;51.460;5.710;2023-12-14T09:47:13;5.80;99.90
33023;DHT22;19390;51.460;5.710;2023-12-14T09:49:41;5.80;99.90
33023;DHT22;19390;51.460;5.710;2023-12-14T09:52:09;5.80;99.90
33023;DHT22;19390;51.460;5.710;2023-12-14T09:54:34;5.90;99.90
33023;DHT22;19390;51.460;5.710;2023-12-14T09:57:00;5.80;99.90
33023;DHT22;19390;51.460;5.710;2023-12-14T09:59:25;5.80;99.90
33023;DHT22;19390;51.460;5.710;2023-12-14T10:01:52;5.80;99.90
33023;DHT22;19390;51.460;5.710;2023-12-14T10:04:19;5.80;99.90
33023;DHT22;19390;51.460;5.710;2023-12-14T10:06:49;5.80;99.90
33023;DHT22;19390;51.460;5.710;2023-12-14T10:09:14;5.90;99.90
33023;DHT22;19390;51.460;5.710;2023-12-14T10:11:44;5.90;99.90
33023;DHT22;19390;51.460;5.710;2023-12-14T10:14:25;5.90;99.90
33023;DHT22;19390;51.460;5.710;2023-12-14T10:16:51;5.80;99.90
33023;DHT22;19390;51.460;5.710;2023-12-14T10:19:18;5.80;99.90
33023;DHT22;19390;51.460;5.710;2023-12-14T10:21:46;5.80;99.90
33023;DHT22;19390;51.460;5.710;2023-12-14T10:24:12;5.80;99.90
33023;DHT22;19390;51.460;5.710;2023-12-14T10:26:38;5.80;99.90
33023;DHT22;19390;51.460;5.710;2023-12-14T10:29:03;5.80;99.90
33023;DHT22;19390;51.460;5.710;2023-12-14T10:31:30;5.80;99.90
33023;DHT22;19390;51.460;5.710;2023-12-14T10:33:56;5.80;99.90
33023;DHT22;19390;51.460;5.710;2023-12-14T10:36:24;5.80;99.90
33023;DHT22;19390;51.460;5.710;2023-12-14T10:38:57;5.80;99.90
33023;DHT22;19390;51.460;5.710;2023-12-14T10:41:24;5.80;99.90
33023;DHT22;19390;51.460;5.710;2023-12-14T10:43:54;5.70;99.90
33023;DHT22;19390;51.460;5.710;2023-12-14T10:46:20;5.70;99.90
33023;DHT22;19390;51.460;5.710;2023-12-14T10:48:55;5.60;99.90
33023;DHT22;19390;51.460;5.710;2023-12-14T10:51:23;5.60;99.90
33023;DHT22;19390;51.460;5.710;2023-12-14T10:53:49;5.60;99.90
33023;DHT22;19390;51.460;5.710;2023-12-14T10:56:16;5.60;99.90
33023;DHT22;19390;51.460;5.710;2023-12-14T10:58:52;5.60;99.90
33023;DHT22;19390;51.460;5.710;2023-12-14T11:01:23;5.70;99.90
33023;DHT22;19390;51.460;5.710;2023-12-14T11:03:56;5.70;99.90
33023;DHT22;19390;51.460;5.710;2023-12-14T11:08:52;5.70;99.90
33023;DHT22;19390;51.460;5.710;2023-12-14T11:11:20;5.90;99.90
33023;DHT22;19390;51.460;5.710;2023-12-14T11:13:52;5.90;99.90
33023;DHT22;19390;51.460;5.710;2023-12-14T11:16:27;5.90;99.90
33023;DHT22;19390;51.460;5.710;2023-12-14T11:24:20;6.10;99.90
33023;DHT22;19390;51.460;5.710;2023-12-14T11:26:49;6.00;99.90
33023;DHT22;19390;51.460;5.710;2023-12-14T11:29:15;5.90;99.90
33023;DHT22;19390;51.460;5.710;2023-12-14T11:31:41;5.90;99.90
33023;DHT22;19390;51.460;5.710;2023-12-14T11:34:06;6.00;99.90
33023;DHT22;19390;51.460;5.710;2023-12-14T11:36:33;6.20;99.90
33023;DHT22;19390;51.460;5.710;2023-12-14T11:38:58;6.20;99.90
33023;DHT22;19390;51.460;5.710;2023-12-14T11:41:24;6.20;99.90
33023;DHT22;19390;51.460;5.710;2023-12-14T11:43:51;6.10;99.90
33023;DHT22;19390;51.460;5.710;2023-12-14T11:46:17;5.90;99.90
33023;DHT22;19390;51.460;5.710;2023-12-14T11:48:46;5.90;99.90
33023;DHT22;19390;51.460;5.710;2023-12-14T11:51:15;5.80;99.90
33023;DHT22;19390;51.460;5.710;2023-12-14T11:53:46;5.90;99.90
33023;DHT22;19390;51.460;5.710;2023-12-14T11:56:14;6.00;99.90
33023;DHT22;19390;51.460;5.710;2023-12-14T11:58:43;6.10;99.90
33023;DHT22;19390;51.460;5.710;2023-12-14T12:01:16;6.10;99.90
33023;DHT22;19390;51.460;5.710;2023-12-14T12:03:42;6.10;99.90
33023;DHT22;19390;51.460;5.710;2023-12-14T12:06:25;6.00;99.90
33023;DHT22;19390;51.460;5.710;2023-12-14T12:08:51;6.00;99.90
33023;DHT22;19390;51.460;5.710;2023-12-14T12:11:18;6.00;99.90
33023;DHT22;19390;51.460;5.710;2023-12-14T12:13:43;6.00;99.90
33023;DHT22;19390;51.460;5.710;2023-12-14T12:16:09;6.10;99.90
33023;DHT22;19390;51.460;5.710;2023-12-14T12:18:35;6.10;99.90
33023;DHT22;19390;51.460;5.710;2023-12-14T12:21:00;6.10;99.90
33023;DHT22;19390;51.460;5.710;2023-12-14T12:23:29;6.20;99.90
33023;DHT22;19390;51.460;5.710;2023-12-14T12:25:55;6.30;99.90
33023;DHT22;19390;51.460;5.710;2023-12-14T12:28:21;6.40;99.90
33023;DHT22;19390;51.460;5.710;2023-12-14T12:30:47;6.50;99.90
33023;DHT22;19390;51.460;5.710;2023-12-14T12:33:13;6.50;99.90
33023;DHT22;19390;51.460;5.710;2023-12-14T12:35:38;6.50;99.90
33023;DHT22;19390;51.460;5.710;2023-12-14T12:38:04;6.50;99.90
33023;DHT22;19390;51.460;5.710;2023-12-14T12:40:29;6.60;99.90
33023;DHT22;19390;51.460;5.710;2023-12-14T12:42:57;6.60;99.90
33023;DHT22;19390;51.460;5.710;2023-12-14T12:45:22;6.60;99.90
33023;DHT22;19390;51.460;5.710;2023-12-14T12:47:51;6.70;99.90
33023;DHT22;19390;51.460;5.710;2023-12-14T12:50:16;6.70;99.90
33023;DHT22;19390;51.460;5.710;2023-12-14T12:52:42;6.60;99.90
33023;DHT22;19390;51.460;5.710;2023-12-14T12:55:08;6.60;99.90
33023;DHT22;19390;51.460;5.710;2023-12-14T12:57:35;6.60;99.90
33023;DHT22;19390;51.460;5.710;2023-12-14T13:00:01;6.50;99.90
33023;DHT22;19390;51.460;5.710;2023-12-14T13:02:26;6.50;99.90
33023;DHT22;19390;51.460;5.710;2023-12-14T13:04:52;6.50;99.90
33023;DHT22;19390;51.460;5.710;2023-12-14T13:07:19;6.40;99.90
33023;DHT22;19390;51.460;5.710;2023-12-14T13:09:44;6.10;99.90
33023;DHT22;19390;51.460;5.710;2023-12-14T13:12:10;6.00;99.90
33023;DHT22;19390;51.460;5.710;2023-12-14T13:14:36;6.10;99.90
33023;DHT22;19390;51.460;5.710;2023-12-14T13:17:02;6.10;99.90
33023;DHT22;19390;51.460;5.710;2023-12-14T13:19:28;6.10;99.90
33023;DHT22;19390;51.460;5.710;2023-12-14T13:21:54;6.00;99.90
33023;DHT22;19390;51.460;5.710;2023-12-14T13:24:22;6.00;99.90
33023;DHT22;19390;51.460;5.710;2023-12-14T13:26:48;6.10;99.90
33023;DHT22;19390;51.460;5.710;2023-12-14T13:29:14;6.00;99.90
33023;DHT22;19390;51.460;5.710;2023-12-14T13:31:39;5.90;99.90
33023;DHT22;19390;51.460;5.710;2023-12-14T13:34:05;5.80;99.90
33023;DHT22;19390;51.460;5.710;2023-12-14T13:36:30;5.90;99.90
33023;DHT22;19390;51.460;5.710;2023-12-14T13:38:56;5.90;99.90
33023;DHT22;19390;51.460;5.710;2023-12-14T13:41:22;5.90;99.90
33023;DHT22;19390;51.460;5.710;2023-12-14T13:43:48;6.00;99.90
33023;DHT22;19390;51.460;5.710;2023-12-14T13:46:14;6.10;99.90
33023;DHT22;19390;51.460;5.710;2023-12-14T13:48:40;6.00;99.90
33023;DHT22;19390;51.460;5.710;2023-12-14T13:51:06;6.00;99.90
33023;DHT22;19390;51.460;5.710;2023-12-14T13:53:33;6.00;99.90
33023;DHT22;19390;51.460;5.710;2023-12-14T13:55:59;6.10;99.90
33023;DHT22;19390;51.460;5.710;2023-12-14T13:58:25;6.20;99.90
33023;DHT22;19390;51.460;5.710;2023-12-14T14:00:50;6.20;99.90
33023;DHT22;19390;51.460;5.710;2023-12-14T14:03:16;6.20;99.90
33023;DHT22;19390;51.460;5.710;2023-12-14T14:05:42;6.10;99.90
33023;DHT22;19390;51.460;5.710;2023-12-14T14:08:09;6.20;99.90
33023;DHT22;19390;51.460;5.710;2023-12-14T14:10:35;6.10;99.90
33023;DHT22;19390;51.460;5.710;2023-12-14T14:13:01;6.20;99.90
33023;DHT22;19390;51.460;5.710;2023-12-14T14:15:26;6.10;99.90
33023;DHT22;19390;51.460;5.710;2023-12-14T14:17:53;6.10;99.90
33023;DHT22;19390;51.460;5.710;2023-12-14T14:20:20;6.10;99.90
33023;DHT22;19390;51.460;5.710;2023-12-14T14:22:46;6.10;99.90
33023;DHT22;19390;51.460;5.710;2023-12-14T14:25:11;6.00;99.90
33023;DHT22;19390;51.460;5.710;2023-12-14T14:27:37;6.00;99.90
33023;DHT22;19390;51.460;5.710;2023-12-14T14:30:03;6.00;99.90
33023;DHT22;19390;51.460;5.710;2023-12-14T14:32:29;6.00;99.90
33023;DHT22;19390;51.460;5.710;2023-12-14T14:34:57;6.00;99.90
33023;DHT22;19390;51.460;5.710;2023-12-14T14:37:24;5.90;99.90
33023;DHT22;19390;51.460;5.710;2023-12-14T14:39:50;5.80;99.90
33023;DHT22;19390;51.460;5.710;2023-12-14T14:42:15;5.90;99.90
33023;DHT22;19390;51.460;5.710;2023-12-14T14:44:41;5.90;99.90
33023;DHT22;19390;51.460;5.710;2023-12-14T14:47:07;6.00;99.90
33023;DHT22;19390;51.460;5.710;2023-12-14T14:49:32;6.00;99.90
33023;DHT22;19390;51.460;5.710;2023-12-14T14:51:58;6.00;99.90
33023;DHT22;19390;51.460;5.710;2023-12-14T14:54:23;6.10;99.90
33023;DHT22;19390;51.460;5.710;2023-12-14T14:56:49;6.00;99.90
33023;DHT22;19390;51.460;5.710;2023-12-14T14:59:15;5.90;99.90
33023;DHT22;19390;51.460;5.710;2023-12-14T15:01:41;6.00;99.90
33023;DHT22;19390;51.460;5.710;2023-12-14T15:04:07;5.90;99.90
33023;DHT22;19390;51.460;5.710;2023-12-14T15:06:32;5.90;99.90
33023;DHT22;19390;51.460;5.710;2023-12-14T15:08:59;5.80;99.90
33023;DHT22;19390;51.460;5.710;2023-12-14T15:11:25;5.90;99.90
33023;DHT22;19390;51.460;5.710;2023-12-14T15:13:50;5.90;99.90
33023;DHT22;19390;51.460;5.710;2023-12-14T15:16:16;5.90;99.90
33023;DHT22;19390;51.460;5.710;2023-12-14T15:18:43;5.90;99.90
33023;DHT22;19390;51.460;5.710;2023-12-14T15:21:09;5.90;99.90
33023;DHT22;19390;51.460;5.710;2023-12-14T15:23:34;5.90;99.90
33023;DHT22;19390;51.460;5.710;2023-12-14T15:26:00;5.90;99.90
33023;DHT22;19390;51.460;5.710;2023-12-14T15:28:26;5.90;99.90
33023;DHT22;19390;51.460;5.710;2023-12-14T15:30:51;5.80;99.90
33023;DHT22;19390;51.460;5.710;2023-12-14T15:33:17;5.80;99.90
33023;DHT22;19390;51.460;5.710;2023-12-14T15:35:43;5.80;99.90
33023;DHT22;19390;51.460;5.710;2023-12-14T15:38:09;5.80;99.90
33023;DHT22;19390;51.460;5.710;2023-12-14T15:40:35;5.80;99.90
33023;DHT22;19390;51.460;5.710;2023-12-14T15:43:04;5.80;99.90
33023;DHT22;19390;51.460;5.710;2023-12-14T15:45:30;5.70;99.90